Bracknell, United Kingdom

11:42 AM BST on October 24, 2014 (GMT +0100)
Rye Close, Warfield | Change Station
CLOSE
Current Station
Personal Weather Station
Location: Bracknell, BERKSHIRE
Elevation: 279 ft
Nearby Weather Stations

Elev 279 ft 51.42 °N, 0.74 °W | Updated 11 minutes ago

Scattered Clouds
Scattered Clouds
60.3 °F
Feels Like 60.3 °F
N
6.0
Wind Variable Wind from SW
Gusts 7.6 mph

Today
High -- | Low -- °F
--% Chance of Precip.
Yesterday
High -- | Low -- °F
Precip. -- in
7:41 AM 5:51 PM
New Moon, 0% visible
Pressure 29.98 in
Visibility 6.2 miles
Clouds Few 900 ft
Scattered Clouds 1900 ft
Dew Point 58 °F
Humidity 93%
Rainfall 0.05 in
Snow Depth Not available.
UV 2 out of 12
Pollen Not available.
Air Quality Not available.
Flu Activity Not available.
METAR EGLF 241020Z 21008KT 180V250 9999 FEW009 SCT019 16/14 Q1015

More Conditions Fewer Conditions

Pressure 29.98 in
Visibility 6.2 miles
Clouds Few 900 ft
Scattered Clouds 1900 ft
Dew Point 58 °F
Humidity 93%
Rainfall 0.05 in
Snow Depth Not available.
UV 2 out of 12
Pollen Not available.
Air Quality Not available.
Flu Activity Not available.
METAR EGLF 241020Z 21008KT 180V250 9999 FEW009 SCT019 16/14 Q1015

More Conditions Fewer Conditions

10-Day Weather Forecast

Almanac

Astronomy

Oct. 24, 2014 Rise Set
Actual Time 7:41 AM BST 5:51 PM BST
Civil Twilight 7:07 AM BST 6:25 PM BST
Nautical Twilight 6:28 AM BST 7:04 PM BST
Astronomical Twilight 5:50 AM BST 7:43 PM BST
Moon 8:08 AM BST 6:17 PM BST
Length of Visible Light 11h 18m
Length of Day
10h 09m
Tomorrow will be 3m 43s shorter.
New Moon, 0% of the Moon is Illuminated
Today
New Moon
Oct 30
First Quarter
Nov 6
Full
Nov 14
Last Quarter
Nov 22
New

Yesterday's Extremes

Country Highs Country Lows

Community

WunderPhotos

Upload Photos

1,764,516 photos uploaded!

WunderBlogs® & News

Nearby

Snow Depth

Not available.

Earthquake Activity

City Distance Mag. Time & Date
No recent earthquake activity has been reported nearby.
Minimum magnitude displayed is 2.5.

Coastal Water Temperatures

Place Temperature
No Stations Reporting

Nearby Weather Stations